Surface observations / Quebec / CYHU (71371)

Quebec | Canada | USA | France | UK | Europe | Elsewhere

Display: Info & Location for CYHU (71371) | Help decoding METAR

CYHU MONTREAL/ST HUBERT A QB CN
Raw surface observations for station CYHU
CYHU 042200Z AUTO 10005KT 9SM CLR M02/M07 A3023 RMK SLP241=
CYHU 042100Z AUTO 09003KT 9SM CLR M01/M06 A3024 RMK SLP244=
CYHU 042000Z AUTO VRB02KT 9SM CLR 01/M08 A3024 RMK SLP244=
CYHU 041900Z AUTO 34007KT 270V360 9SM CLR 01/M07 A3023 RMK SLP240=
CYHU 041800Z AUTO 33005KT 300V360 9SM CLR 00/M07 A3025 RMK SLP246=
CYHU 041700Z AUTO 32006KT 280V360 9SM CLR 00/M07 A3026 RMK SLP249=
CYHU 041600Z AUTO 33006KT 280V350 9SM FEW026 M00/M06 A3027 RMK SLP252=
CYHU 041500Z AUTO 31007KT 9SM CLR M01/M06 A3027 RMK SLP252=
CYHU 041400Z AUTO 28009KT 9SM FEW021 M01/M06 A3025 RMK SLP246=
CYHU 041300Z AUTO 31004KT 9SM CLR M02/M06 A3024 RMK SLP242=
CYHU 041200Z AUTO 31007KT 9SM BKN029 M02/M06 A3022 RMK SLP236=
CYHU 041100Z AUTO 31006KT 9SM OVC029 M01/M06 A3021 RMK SLP234=
CYHU 041000Z AUTO 32008KT 9SM OVC029 M01/M06 A3020 RMK SLP231=
CYHU 040900Z AUTO 31006KT 9SM OVC029 M01/M06 A3019 RMK SLP227=
CYHU 040800Z AUTO 34008KT 9SM OVC031 M01/M06 A3018 RMK SLP223=
CYHU 040700Z AUTO 32004KT 9SM OVC033 M00/M06 A3018 RMK SLP221=
CYHU 040600Z AUTO 35006KT 9SM OVC031 M01/M06 A3015 RMK SLP214=
CYHU 040500Z AUTO 34009KT 9SM OVC033 M01/M06 A3015 RMK SLP213=
CYHU 040400Z AUTO 34007KT 9SM OVC033 M00/M06 A3015 RMK SLP212=
CYHU 040300Z AUTO 33007KT 9SM OVC037 M00/M07 A3013 RMK SLP205=
CYHU 040200Z AUTO 32008KT 9SM OVC039 00/M06 A3012 RMK SLP202=
CYHU 040100Z AUTO 29008G17KT 9SM OVC042 01/M05 A3011 RMK SLP199=
CYHU 040000Z AUTO 30009KT 9SM OVC044 01/M05 A3009 RMK SLP193=
CYHU 032300Z AUTO 31010G15KT 9SM BKN036 OVC046 01/M05 A3007 RMK SLP186=
CYHU 032200Z AUTO 30010G15KT 9SM BKN037 OVC045 01/M04 A3004 RMK SLP176=